Time;durP1;ratioP1;P1;durP2;ratioP2;P2;SDS_P1;SDS_P2;PMS_P1;PMS_P2;Temp;Humidity;BMP_temperature;BMP_pressure;BME280_temperature;BME280_humidity;BME280_pressure;Samples;Min_cycle;Max_cycle;Signal;HPM_P1;HPM_P2
2024/03/07 00:00:54;;;;;;;8.10;6.35;;;;;;;2.03;100.00;97705.16;1225203;75;2918424;-61
2024/03/07 00:03:27;;;;;;;8.80;7.55;;;;;;;1.84;100.00;97701.28;1224403;75;2922560;-61
2024/03/07 00:06:00;;;;;;;8.25;6.75;;;;;;;1.88;100.00;97701.97;1225376;75;2920009;-63
2024/03/07 00:08:33;;;;;;;8.00;6.30;;;;;;;1.80;100.00;97705.22;1222913;75;2918384;-63
2024/03/07 00:11:09;;;;;;;7.75;6.00;;;;;;;1.95;100.00;97709.19;1223808;75;2929246;-64
2024/03/07 00:13:42;;;;;;;6.75;5.50;;;;;;;1.78;100.00;97710.28;1225141;75;2920148;-64
2024/03/07 00:16:18;;;;;;;7.40;5.90;;;;;;;1.81;100.00;97701.38;1224344;75;2923026;-66
2024/03/07 00:18:50;;;;;;;8.05;6.30;;;;;;;1.81;100.00;97704.06;1225328;75;2914515;-60
2024/03/07 00:21:23;;;;;;;6.20;4.85;;;;;;;1.88;100.00;97704.69;1224306;75;2915692;-65
2024/03/07 00:23:56;;;;;;;7.70;6.55;;;;;;;1.61;100.00;97701.34;1224600;75;2922292;-65
2024/03/07 00:26:30;;;;;;;6.35;5.05;;;;;;;1.81;100.00;97706.75;1225392;75;2915640;-64
2024/03/07 00:29:03;;;;;;;7.70;6.50;;;;;;;1.53;100.00;97700.72;1224853;75;2925488;-64
2024/03/07 00:31:38;;;;;;;7.55;6.40;;;;;;;1.47;100.00;97697.75;1224478;75;2918221;-64
2024/03/07 00:34:11;;;;;;;8.10;6.30;;;;;;;1.47;100.00;97707.78;1224364;75;2921387;-63
2024/03/07 00:36:44;;;;;;;6.60;5.60;;;;;;;1.55;100.00;97695.66;1224176;75;2920533;-60
2024/03/07 00:39:17;;;;;;;8.90;5.55;;;;;;;1.55;100.00;97690.28;1224493;75;2923865;-63
2024/03/07 00:41:50;;;;;;;8.50;6.50;;;;;;;1.44;100.00;97690.50;1225070;75;2920195;-63
2024/03/07 00:44:23;;;;;;;8.75;6.90;;;;;;;1.23;100.00;97690.88;1224826;75;2919780;-61
2024/03/07 00:46:59;;;;;;;10.65;7.85;;;;;;;1.05;100.00;97691.91;1223547;75;2919300;-64
2024/03/07 00:49:32;;;;;;;10.85;8.50;;;;;;;1.25;100.00;97699.28;1224929;75;2918999;-63
2024/03/07 00:52:06;;;;;;;10.70;7.85;;;;;;;1.15;100.00;97706.38;1223967;75;2917755;-64
2024/03/07 00:54:39;;;;;;;10.60;8.35;;;;;;;1.11;100.00;97702.22;1224678;75;2930637;-62
2024/03/07 00:57:12;;;;;;;9.40;7.50;;;;;;;1.29;100.00;97705.38;1224745;75;2928763;-63
2024/03/07 00:59:45;;;;;;;7.75;6.85;;;;;;;1.23;100.00;97705.09;1224321;75;2921948;-62
2024/03/07 01:02:20;;;;;;;8.75;7.15;;;;;;;1.17;100.00;97708.69;1225123;75;2920111;-64
2024/03/07 01:04:54;;;;;;;8.30;6.75;;;;;;;1.12;100.00;97709.91;1225308;75;2923812;-64
2024/03/07 01:07:27;;;;;;;8.25;7.35;;;;;;;1.21;100.00;97704.75;1225097;75;2915560;-66
2024/03/07 01:10:00;;;;;;;7.45;6.15;;;;;;;1.26;100.00;97703.50;1225165;75;2915913;-60
2024/03/07 01:12:34;;;;;;;7.40;6.20;;;;;;;1.27;100.00;97705.81;1224855;75;2921504;-65
2024/03/07 01:15:08;;;;;;;6.40;4.95;;;;;;;1.37;100.00;97708.72;1225298;75;2920424;-62
2024/03/07 01:17:44;;;;;;;5.85;5.05;;;;;;;1.24;100.00;97703.91;1224243;75;2920282;-65
2024/03/07 01:20:18;;;;;;;6.05;5.05;;;;;;;1.24;100.00;97697.78;1224742;75;2920992;-68
2024/03/07 01:22:51;;;;;;;6.40;5.80;;;;;;;1.12;100.00;97695.66;1224959;75;2919945;-62
2024/03/07 01:25:24;;;;;;;8.05;6.80;;;;;;;1.18;100.00;97707.50;1224681;75;2915961;-66
2024/03/07 01:27:57;;;;;;;7.05;5.80;;;;;;;1.04;100.00;97700.44;1224556;75;2928742;-63
2024/03/07 01:30:29;;;;;;;8.55;6.60;;;;;;;1.14;100.00;97702.16;1224681;75;2918630;-64
2024/03/07 01:33:05;;;;;;;5.80;5.00;;;;;;;1.17;100.00;97701.34;1224947;75;2920907;-61
2024/03/07 01:35:38;;;;;;;5.90;4.85;;;;;;;1.16;100.00;97701.78;1223749;75;2926600;-63
2024/03/07 01:38:13;;;;;;;6.90;5.45;;;;;;;0.96;100.00;97693.59;1225081;75;2921032;-64
2024/03/07 01:40:47;;;;;;;7.00;5.80;;;;;;;1.07;100.00;97691.50;1224202;75;2938907;-62
2024/03/07 01:43:21;;;;;;;6.90;5.50;;;;;;;1.09;100.00;97691.88;1224489;75;2922344;-63
2024/03/07 01:46:00;;;;;;;6.00;5.30;;;;;;;1.08;100.00;97684.94;1224669;75;2916692;-64
2024/03/07 01:48:35;;;;;;;6.00;4.90;;;;;;;1.08;100.00;97684.19;1225065;75;2926450;-61
2024/03/07 01:51:09;;;;;;;5.85;5.15;;;;;;;1.00;100.00;97688.94;1223893;75;2937730;-62
2024/03/07 01:53:42;;;;;;;8.00;5.80;;;;;;;1.01;100.00;97685.84;1224628;75;2920029;-64
2024/03/07 01:56:15;;;;;;;10.40;7.85;;;;;;;0.82;100.00;97681.91;1223734;75;2925165;-61
2024/03/07 01:58:49;;;;;;;7.00;6.15;;;;;;;1.01;100.00;97679.66;1224557;75;2917410;-65
2024/03/07 02:01:22;;;;;;;6.15;5.50;;;;;;;1.06;100.00;97690.75;1224721;75;2922794;-65
2024/03/07 02:03:57;;;;;;;6.80;5.65;;;;;;;0.96;100.00;97680.13;1223836;75;2906692;-62
2024/03/07 02:06:31;;;;;;;7.80;6.00;;;;;;;0.98;100.00;97678.56;1224460;75;2919211;-65
2024/03/07 02:09:05;;;;;;;7.80;5.50;;;;;;;1.03;100.00;97683.50;1223822;75;2925042;-65
2024/03/07 02:11:38;;;;;;;6.35;4.60;;;;;;;1.08;100.00;97684.19;1223246;75;2918099;-65
2024/03/07 02:14:11;;;;;;;6.35;4.85;;;;;;;1.00;100.00;97678.16;1223164;75;2927696;-61
2024/03/07 02:16:44;;;;;;;5.40;4.75;;;;;;;1.04;100.00;97686.94;1225367;75;2843260;-63
2024/03/07 02:19:20;;;;;;;5.85;4.75;;;;;;;0.96;100.00;97674.75;1224205;75;2923299;-64
2024/03/07 02:21:56;;;;;;;5.90;4.80;;;;;;;1.01;100.00;97671.56;1223644;75;2922463;-60
2024/03/07 02:24:29;;;;;;;4.85;3.80;;;;;;;1.01;100.00;97675.06;1224322;75;2940705;-61
2024/03/07 02:27:02;;;;;;;4.85;4.05;;;;;;;0.94;100.00;97675.16;1224374;75;2916944;-62
2024/03/07 02:29:36;;;;;;;6.45;4.60;;;;;;;0.94;100.00;97675.16;1223560;75;2926036;-61
2024/03/07 02:32:09;;;;;;;6.90;5.30;;;;;;;0.91;100.00;97677.91;1223933;75;2925673;-63
2024/03/07 02:34:43;;;;;;;6.25;5.10;;;;;;;0.98;100.00;97686.63;1223949;75;2922531;-62
2024/03/07 02:37:18;;;;;;;6.25;4.40;;;;;;;0.94;100.00;97671.69;1223878;75;2928188;-62
2024/03/07 02:39:51;;;;;;;5.00;3.85;;;;;;;0.99;100.00;97685.47;1224749;75;2936337;-65
2024/03/07 02:42:24;;;;;;;6.20;4.75;;;;;;;0.97;100.00;97682.44;1223663;75;2929828;-62
2024/03/07 02:44:57;;;;;;;6.20;4.35;;;;;;;1.00;100.00;97678.91;1224532;75;2915960;-63
2024/03/07 02:47:30;;;;;;;5.45;4.50;;;;;;;0.92;100.00;97676.75;1224732;75;2921735;-65
2024/03/07 02:50:03;;;;;;;5.55;4.35;;;;;;;0.97;100.00;97677.03;1223894;75;2916536;-64
2024/03/07 02:52:38;;;;;;;5.35;4.15;;;;;;;0.98;100.00;97680.50;1223763;75;2943306;-61
2024/03/07 02:55:13;;;;;;;5.25;3.95;;;;;;;0.92;100.00;97679.44;1224071;75;2919681;-59
2024/03/07 02:57:46;;;;;;;7.25;5.80;;;;;;;0.76;100.00;97672.75;1223139;75;2937013;-61
2024/03/07 03:00:26;;;;;;;6.65;5.70;;;;;;;0.90;100.00;97673.69;1223789;75;2922264;-62
2024/03/07 03:03:00;;;;;;;5.55;4.85;;;;;;;0.81;100.00;97677.66;1223479;75;2953524;-63
2024/03/07 03:05:32;;;;;;;6.85;4.75;;;;;;;0.77;100.00;97678.88;1224791;75;2914689;-61
2024/03/07 03:08:09;;;;;;;5.60;4.35;;;;;;;0.86;100.00;97679.13;1223974;75;2937385;-65
2024/03/07 03:10:42;;;;;;;4.55;3.50;;;;;;;0.77;100.00;97681.59;1224209;75;2927520;-61
2024/03/07 03:13:15;;;;;;;5.15;4.35;;;;;;;0.61;100.00;97682.22;1223913;75;2922263;-65
2024/03/07 03:15:48;;;;;;;7.10;5.55;;;;;;;0.60;100.00;97691.47;1223924;75;2932451;-63
2024/03/07 03:18:21;;;;;;;5.50;4.75;;;;;;;0.71;100.00;97689.38;1224493;75;2917340;-62
2024/03/07 03:20:54;;;;;;;6.00;4.70;;;;;;;0.67;100.00;97685.97;1224472;75;2922580;-62
2024/03/07 03:23:29;;;;;;;5.80;4.65;;;;;;;0.49;100.00;97691.63;1224350;83;2924376;-63
2024/03/07 03:26:03;;;;;;;6.00;4.30;;;;;;;0.61;100.00;97687.63;1225190;75;2920932;-63
2024/03/07 03:28:36;;;;;;;5.85;4.45;;;;;;;0.60;100.00;97686.88;1224953;75;2929691;-61
2024/03/07 03:31:09;;;;;;;4.90;3.80;;;;;;;0.62;100.00;97681.06;1223299;75;2928189;-63
2024/03/07 03:33:41;;;;;;;5.85;4.05;;;;;;;0.60;100.00;97691.47;1221579;75;3074667;-65
2024/03/07 03:36:14;;;;;;;6.85;5.60;;;;;;;0.65;100.00;97688.34;1224608;75;2919720;-61
2024/03/07 03:38:50;;;;;;;6.20;4.80;;;;;;;0.80;100.00;97686.19;1223986;75;2921113;-62
2024/03/07 03:41:22;;;;;;;5.80;4.55;;;;;;;0.84;100.00;97697.66;1224885;75;2925090;-61
2024/03/07 03:43:55;;;;;;;5.55;4.70;;;;;;;0.90;100.00;97696.03;1224355;75;2927307;-63
2024/03/07 03:46:28;;;;;;;5.10;4.60;;;;;;;0.88;100.00;97692.97;1224503;75;2925728;-60
2024/03/07 03:49:01;;;;;;;5.10;4.40;;;;;;;0.95;100.00;97694.78;1225535;75;2919228;-63
2024/03/07 03:51:34;;;;;;;5.90;4.60;;;;;;;1.01;100.00;97696.63;1224824;75;2922297;-63
2024/03/07 03:54:10;;;;;;;5.20;3.95;;;;;;;1.10;100.00;97698.00;1224874;75;2924825;-62
2024/03/07 03:56:42;;;;;;;6.75;4.65;;;;;;;1.15;100.00;97694.84;1225411;75;2918655;-61
2024/03/07 03:59:15;;;;;;;5.65;4.45;;;;;;;1.21;100.00;97695.91;1224316;75;2921558;-59
2024/03/07 04:01:48;;;;;;;6.25;4.45;;;;;;;1.25;100.00;97704.69;1224677;75;2921046;-65
2024/03/07 04:04:21;;;;;;;5.95;4.90;;;;;;;1.30;100.00;97704.22;1224708;75;2916516;-59
2024/03/07 04:06:54;;;;;;;6.00;4.85;;;;;;;1.32;100.00;97701.09;1224639;75;2925429;-65
2024/03/07 04:09:31;;;;;;;8.85;7.00;;;;;;;1.12;100.00;97706.44;1223740;75;2925001;-62
2024/03/07 04:12:04;;;;;;;9.65;7.70;;;;;;;1.14;100.00;97706.81;1224601;75;2922630;-61
2024/03/07 04:14:38;;;;;;;12.45;8.60;;;;;;;1.21;100.00;97709.38;1224184;75;2917782;-65
2024/03/07 04:17:11;;;;;;;11.55;9.35;;;;;;;1.15;100.00;97705.63;1224374;75;2920276;-64
2024/03/07 04:19:46;;;;;;;11.30;8.30;;;;;;;1.31;100.00;97718.47;1223709;75;2929945;-66
2024/03/07 04:22:19;;;;;;;8.20;7.10;;;;;;;1.43;100.00;97710.53;1223977;75;2918693;-64
2024/03/07 04:24:55;;;;;;;8.95;6.50;;;;;;;1.49;100.00;97706.19;1224742;75;2921845;-62
2024/03/07 04:27:28;;;;;;;6.40;5.25;;;;;;;1.51;100.00;97705.75;1224176;75;2930623;-63
2024/03/07 04:30:03;;;;;;;6.10;5.50;;;;;;;1.60;100.00;97714.06;1225165;75;2927058;-62
2024/03/07 04:32:36;;;;;;;5.30;4.80;;;;;;;1.70;100.00;97718.50;1224144;75;2923601;-61
2024/03/07 04:35:11;;;;;;;8.00;6.40;;;;;;;1.50;100.00;97701.56;1224474;75;2921435;-63
2024/03/07 04:37:44;;;;;;;10.80;8.85;;;;;;;1.52;100.00;97717.34;1224675;75;2904313;-64
2024/03/07 04:40:21;;;;;;;10.70;8.10;;;;;;;1.41;100.00;97720.19;1224648;75;2928223;-61
2024/03/07 04:42:54;;;;;;;11.60;8.40;;;;;;;1.52;100.00;97710.00;1223670;75;2921560;-64
2024/03/07 04:45:27;;;;;;;9.65;8.35;;;;;;;1.52;100.00;97718.09;1223758;75;2922511;-61
2024/03/07 04:48:00;;;;;;;9.85;8.50;;;;;;;1.58;100.00;97715.66;1224162;75;2921421;-61
2024/03/07 04:50:33;;;;;;;8.35;7.45;;;;;;;1.82;100.00;97717.13;1224046;75;2901391;-63
2024/03/07 04:53:06;;;;;;;6.85;6.15;;;;;;;1.86;100.00;97720.53;1223002;75;2942807;-61
2024/03/07 04:55:41;;;;;;;9.20;8.05;;;;;;;1.69;100.00;97721.63;1223800;75;2926508;-62
2024/03/07 04:58:14;;;;;;;8.75;7.35;;;;;;;1.83;100.00;97724.06;1223995;75;2925192;-60
2024/03/07 05:00:47;;;;;;;7.35;6.20;;;;;;;1.94;100.00;97726.53;1224203;75;2932723;-64
2024/03/07 05:03:19;;;;;;;7.35;6.30;;;;;;;1.80;100.00;97735.66;1224258;75;2922232;-61
2024/03/07 05:05:52;;;;;;;6.40;5.35;;;;;;;2.04;100.00;97736.34;1224014;75;2921657;-62
2024/03/07 05:08:25;;;;;;;5.95;4.80;;;;;;;2.12;100.00;97731.59;1223938;75;2925444;-63
2024/03/07 05:11:00;;;;;;;9.05;5.85;;;;;;;2.03;100.00;97737.53;1222665;75;2927219;-62
2024/03/07 05:13:34;;;;;;;5.25;4.50;;;;;;;2.21;100.00;97739.13;1224588;67;2921634;-63
2024/03/07 05:16:08;;;;;;;5.70;4.80;;;;;;;2.21;100.00;97733.72;1221895;75;2949624;-63
2024/03/07 05:18:43;;;;;;;8.40;7.35;;;;;;;2.26;100.00;97741.31;1224618;75;2937309;-63
2024/03/07 05:24:00;;;;;;;8.65;7.15;;;;;;;2.31;100.00;97732.75;1223911;75;2919773;-63
2024/03/07 05:26:40;;;;;;;14.65;11.90;;;;;;;2.11;100.00;97738.91;1223230;75;2944091;-65
2024/03/07 05:29:13;;;;;;;13.75;10.60;;;;;;;2.24;100.00;97733.66;1223474;75;2936545;-64
2024/03/07 05:31:47;;;;;;;11.50;9.00;;;;;;;2.30;100.00;97744.72;1223360;75;2928846;-61
2024/03/07 05:34:23;;;;;;;10.55;8.00;;;;;;;2.39;100.00;97746.88;1224394;75;2927422;-63
2024/03/07 05:36:56;;;;;;;11.15;9.20;;;;;;;2.39;100.00;97747.63;1224143;75;2919377;-62
2024/03/07 05:39:29;;;;;;;12.80;10.75;;;;;;;2.47;100.00;97748.22;1223730;75;2924226;-64
2024/03/07 05:42:06;;;;;;;11.65;9.45;;;;;;;2.42;100.00;97757.59;1224327;75;2920619;-62
2024/03/07 05:44:39;;;;;;;10.90;8.75;;;;;;;2.48;100.00;97757.88;1223590;75;2923056;-61
2024/03/07 05:47:13;;;;;;;8.70;7.15;;;;;;;2.56;100.00;97760.00;1224491;75;2920983;-63
2024/03/07 05:49:46;;;;;;;9.80;7.30;;;;;;;2.50;100.00;97763.59;1223759;75;2925340;-63
2024/03/07 05:52:19;;;;;;;7.65;6.45;;;;;;;2.51;100.00;97765.13;1223068;75;2932878;-61
2024/03/07 05:54:52;;;;;;;9.95;7.70;;;;;;;2.50;100.00;97756.28;1224155;75;2922513;-62
2024/03/07 05:57:27;;;;;;;9.75;7.30;;;;;;;2.55;100.00;97765.84;1221831;75;2927764;-62
2024/03/07 06:00:00;;;;;;;6.65;5.60;;;;;;;2.71;100.00;97765.84;1223776;75;2923207;-60
2024/03/07 06:02:33;;;;;;;5.70;4.45;;;;;;;2.82;100.00;97764.88;1223311;75;2929343;-63
2024/03/07 06:05:12;;;;;;;5.70;4.95;;;;;;;2.72;100.00;97770.09;1223056;75;2927625;-62
2024/03/07 06:07:45;;;;;;;7.40;5.15;;;;;;;2.82;100.00;97762.16;1223045;75;2943518;-60
2024/03/07 06:10:23;;;;;;;5.90;4.80;;;;;;;2.85;100.00;97764.78;1222411;83;2928560;-64
2024/03/07 06:12:59;;;;;;;5.70;4.70;;;;;;;2.95;100.00;97771.88;1223460;75;2930862;-63
2024/03/07 06:15:32;;;;;;;8.50;5.80;;;;;;;2.83;100.00;97769.06;1224399;75;2920142;-63
2024/03/07 06:18:05;;;;;;;7.75;5.95;;;;;;;2.97;100.00;97774.16;1223896;75;2920574;-63
2024/03/07 06:20:38;;;;;;;7.35;5.00;;;;;;;3.02;100.00;97776.34;1223750;75;2931952;-64
2024/03/07 06:23:11;;;;;;;6.25;5.10;;;;;;;3.01;100.00;97777.56;1224154;75;2926151;-62
2024/03/07 06:25:50;;;;;;;7.35;5.40;;;;;;;3.07;100.00;97781.25;1223373;75;2923778;-63
2024/03/07 06:28:25;;;;;;;10.75;7.10;;;;;;;3.03;100.00;97785.22;1224204;75;2925790;-64
2024/03/07 06:30:59;;;;;;;9.50;7.25;;;;;;;3.22;100.00;97791.75;1224304;75;2921107;-65
2024/03/07 06:33:37;;;;;;;10.60;8.10;;;;;;;3.23;100.00;97793.28;1222759;75;2920011;-61
2024/03/07 06:36:10;;;;;;;9.80;7.40;;;;;;;3.25;100.00;97791.69;1224149;75;2927309;-62
2024/03/07 06:38:43;;;;;;;12.60;6.65;;;;;;;3.47;100.00;97791.91;1223231;75;2926859;-62
2024/03/07 06:41:18;;;;;;;9.00;7.50;;;;;;;3.32;100.00;97796.13;1223292;75;2931497;-61
2024/03/07 06:43:55;;;;;;;8.20;7.05;;;;;;;3.52;100.00;97801.47;1224194;75;2923272;-59
2024/03/07 06:46:28;;;;;;;12.45;8.90;;;;;;;3.44;100.00;97803.59;1223602;75;2928442;-60
2024/03/07 06:49:01;;;;;;;13.80;9.80;;;;;;;3.52;100.00;97804.19;1222693;67;2919724;-61
2024/03/07 06:51:33;;;;;;;10.45;8.30;;;;;;;3.79;100.00;97801.94;1224252;75;2923650;-61
2024/03/07 06:54:06;;;;;;;10.40;7.40;;;;;;;3.96;100.00;97804.59;1224148;75;2923495;-62
2024/03/07 06:56:42;;;;;;;10.70;7.95;;;;;;;3.97;100.00;97809.59;1223784;75;2935927;-63
2024/03/07 06:59:19;;;;;;;9.05;7.30;;;;;;;3.94;100.00;97807.72;1224335;75;2925663;-59
2024/03/07 07:01:54;;;;;;;11.20;8.65;;;;;;;4.09;100.00;97802.72;1224833;75;2928693;-61
2024/03/07 07:04:31;;;;;;;9.30;7.80;;;;;;;4.21;100.00;97806.63;1223612;75;2930230;-65
2024/03/07 07:07:04;;;;;;;12.80;9.80;;;;;;;4.32;100.00;97793.56;1223929;75;2931196;-63
2024/03/07 07:09:37;;;;;;;10.80;8.70;;;;;;;4.56;100.00;97796.75;1215741;75;2920632;-64
2024/03/07 07:12:11;;;;;;;11.50;9.55;;;;;;;4.60;97.52;97802.09;1222201;75;2920309;-63
2024/03/07 07:14:46;;;;;;;13.05;10.35;;;;;;;4.67;95.79;97794.50;1223811;75;2918871;-63
2024/03/07 07:17:19;;;;;;;13.50;9.45;;;;;;;4.83;94.84;97798.28;1225248;75;2928836;-63
2024/03/07 07:19:52;;;;;;;10.45;7.90;;;;;;;5.02;95.09;97804.72;1223886;75;2935615;-60
2024/03/07 07:22:25;;;;;;;11.35;9.05;;;;;;;4.85;94.47;97799.38;1223081;75;2953937;-65
2024/03/07 07:24:58;;;;;;;8.85;7.70;;;;;;;5.20;94.03;97801.47;1224471;75;2921839;-62
2024/03/07 07:27:30;;;;;;;9.30;7.55;;;;;;;5.19;92.91;97808.06;1224948;75;2925004;-62
2024/03/07 07:30:07;;;;;;;8.70;7.80;;;;;;;5.45;90.48;97798.69;1224249;75;2919986;-62
2024/03/07 07:32:39;;;;;;;8.95;7.20;;;;;;;5.57;90.02;97804.53;1224877;75;2923866;-65
2024/03/07 07:35:14;;;;;;;8.45;7.20;;;;;;;5.52;88.60;97795.75;1225010;75;2922353;-62
2024/03/07 07:37:50;;;;;;;16.90;12.65;;;;;;;5.25;87.68;97800.91;1222775;75;2928533;-64
2024/03/07 07:40:26;;;;;;;17.60;13.35;;;;;;;5.30;88.05;97805.78;1222895;75;2928132;-65
2024/03/07 07:43:01;;;;;;;16.55;13.05;;;;;;;5.61;89.76;97800.53;1223085;75;2937444;-63
2024/03/07 07:45:37;;;;;;;15.65;11.75;;;;;;;5.82;88.40;97800.97;1223231;75;2936043;-62
2024/03/07 07:48:11;;;;;;;14.40;11.80;;;;;;;5.69;88.40;97796.34;1223817;75;2922594;-61
2024/03/07 07:50:44;;;;;;;15.50;12.60;;;;;;;5.38;88.91;97798.16;1223558;75;2920630;-63
2024/03/07 07:53:17;;;;;;;16.70;12.85;;;;;;;5.80;89.38;97800.66;1223156;75;2934966;-63
2024/03/07 07:55:50;;;;;;;17.60;13.70;;;;;;;5.74;91.01;97793.06;1224386;75;2922218;-62
2024/03/07 07:58:23;;;;;;;19.80;13.70;;;;;;;5.92;87.31;97794.44;1223945;75;2925424;-62
2024/03/07 08:00:58;;;;;;;17.75;12.80;;;;;;;6.13;86.92;97792.97;1223013;75;2934178;-62
2024/03/07 08:03:33;;;;;;;17.65;13.20;;;;;;;6.28;86.08;97794.00;1224406;75;2917564;-62
2024/03/07 08:06:07;;;;;;;16.10;11.75;;;;;;;6.34;86.59;97803.06;1222354;75;2931775;-62
2024/03/07 08:08:40;;;;;;;15.90;11.65;;;;;;;6.67;87.61;97801.91;1222897;75;2918653;-63
2024/03/07 08:11:16;;;;;;;16.45;12.45;;;;;;;6.36;88.42;97797.19;1223345;75;2922610;-62
2024/03/07 08:13:50;;;;;;;15.70;11.60;;;;;;;6.62;87.33;97811.41;1222475;75;2923092;-63
2024/03/07 08:16:26;;;;;;;15.75;11.00;;;;;;;6.71;83.63;97806.03;1223881;75;2925349;-63
2024/03/07 08:18:58;;;;;;;16.35;12.35;;;;;;;6.72;83.77;97810.25;1222750;75;2919219;-63
2024/03/07 08:21:32;;;;;;;15.30;11.50;;;;;;;6.75;83.77;97809.34;1223699;75;2926837;-65
2024/03/07 08:24:10;;;;;;;16.10;11.50;;;;;;;6.41;84.42;97804.78;1223406;75;2928808;-62
2024/03/07 08:26:44;;;;;;;16.40;12.60;;;;;;;6.56;86.42;97807.75;1223828;75;2935055;-63
2024/03/07 08:29:17;;;;;;;15.50;11.80;;;;;;;6.74;83.14;97804.38;1223078;75;2923424;-63
2024/03/07 08:31:52;;;;;;;17.85;11.95;;;;;;;6.92;82.03;97803.69;1223700;75;2919213;-63
2024/03/07 08:34:25;;;;;;;15.15;10.10;;;;;;;7.08;81.99;97797.25;1223301;75;2921572;-65
2024/03/07 08:36:59;;;;;;;15.70;11.55;;;;;;;7.06;81.55;97803.16;1222637;75;2939371;-65
2024/03/07 08:39:31;;;;;;;15.70;11.45;;;;;;;7.32;79.71;97806.41;1222911;75;2926365;-63
2024/03/07 08:42:04;;;;;;;14.05;10.00;;;;;;;7.47;78.63;97812.03;1222448;75;2941627;-64
2024/03/07 08:44:38;;;;;;;12.15;9.85;;;;;;;7.82;77.06;97804.38;1223685;75;2926143;-63
2024/03/07 08:47:14;;;;;;;15.55;11.30;;;;;;;7.92;76.57;97805.16;1224934;75;2918718;-64
2024/03/07 08:49:47;;;;;;;15.35;10.95;;;;;;;8.05;76.66;97802.25;1223722;75;2922682;-63
2024/03/07 08:52:20;;;;;;;14.90;10.70;;;;;;;8.21;77.25;97796.50;1224118;75;2918267;-62
2024/03/07 08:54:53;;;;;;;17.45;11.50;;;;;;;8.28;74.65;97798.16;1223139;75;2924624;-63
2024/03/07 08:57:25;;;;;;;12.05;9.80;;;;;;;8.51;75.18;97796.78;1222627;75;2926557;-64
2024/03/07 09:00:08;;;;;;;15.15;11.05;;;;;;;8.28;74.08;97796.19;1223594;75;2922314;-62
2024/03/07 09:02:46;;;;;;;14.95;10.50;;;;;;;8.04;73.44;97798.03;1223719;75;2918017;-66
2024/03/07 09:05:19;;;;;;;14.90;10.55;;;;;;;8.10;74.21;97796.97;1223303;75;2928458;-60
2024/03/07 09:07:52;;;;;;;14.40;9.90;;;;;;;8.57;73.14;97802.41;1223554;75;2935761;-63
2024/03/07 09:10:29;;;;;;;13.50;9.70;;;;;;;8.61;72.06;97792.84;1221865;83;2928383;-64
2024/03/07 09:13:02;;;;;;;13.30;10.40;;;;;;;8.52;74.43;97792.84;1219547;75;3126058;-65
2024/03/07 09:15:36;;;;;;;14.30;10.80;;;;;;;8.57;74.46;97802.41;1223706;75;2922786;-63
2024/03/07 09:18:12;;;;;;;13.55;10.45;;;;;;;8.35;74.21;97791.66;1223696;75;2919942;-63
2024/03/07 09:20:46;;;;;;;15.85;10.10;;;;;;;8.21;73.40;97804.69;1221809;75;2925810;-63
2024/03/07 09:23:19;;;;;;;14.75;10.05;;;;;;;8.16;74.59;97802.56;1223414;75;2923844;-63
2024/03/07 09:25:52;;;;;;;15.00;10.55;;;;;;;7.88;74.20;97799.06;1224239;75;2922167;-61
2024/03/07 09:28:24;;;;;;;17.00;10.85;;;;;;;8.13;74.54;97797.25;1222126;75;2935276;-62
2024/03/07 09:30:58;;;;;;;12.30;9.50;;;;;;;8.09;73.51;97795.44;1222809;75;2939058;-62
2024/03/07 09:33:37;;;;;;;13.15;9.65;;;;;;;8.11;73.33;97790.28;1223646;75;2932381;-63
2024/03/07 09:36:11;;;;;;;14.50;9.85;;;;;;;8.11;72.45;97793.03;1223939;75;2914389;-64
2024/03/07 09:38:44;;;;;;;11.75;8.90;;;;;;;8.32;71.42;97790.56;1223022;75;2918778;-64
2024/03/07 09:41:18;;;;;;;14.05;8.45;;;;;;;8.00;70.68;97786.50;1223882;75;2931146;-63
2024/03/07 09:43:54;;;;;;;10.10;7.55;;;;;;;8.17;69.55;97784.22;1222986;75;2923819;-64
2024/03/07 09:46:28;;;;;;;11.90;8.10;;;;;;;8.30;69.57;97782.09;1222455;75;2921904;-62
2024/03/07 09:49:05;;;;;;;12.10;7.70;;;;;;;8.63;69.61;97778.72;1223280;75;2919549;-63
2024/03/07 09:51:39;;;;;;;9.80;6.75;;;;;;;8.48;67.81;97784.06;1222944;75;2921615;-63
2024/03/07 09:54:13;;;;;;;10.30;6.90;;;;;;;8.50;67.39;97787.84;1223305;75;2928281;-60
2024/03/07 09:56:46;;;;;;;9.35;6.80;;;;;;;8.49;67.80;97786.34;1222455;75;2920779;-62
2024/03/07 09:59:23;;;;;;;7.15;5.30;;;;;;;8.87;65.67;97790.47;1223556;75;2952400;-62
2024/03/07 10:02:00;;;;;;;6.20;5.30;;;;;;;8.94;65.44;97781.94;1223205;75;2922894;-62
2024/03/07 10:04:48;;;;;;;6.30;4.85;;;;;;;9.43;63.69;97785.50;1224341;75;2917702;-66
2024/03/07 10:07:21;;;;;;;7.70;5.60;;;;;;;9.34;63.41;97780.84;1221984;75;2928344;-67
2024/03/07 10:09:57;;;;;;;8.00;5.35;;;;;;;9.53;63.11;97783.47;1222031;75;2928731;-64
2024/03/07 10:12:31;;;;;;;13.15;6.25;;;;;;;9.45;60.95;97785.03;1223675;75;2922055;-61
2024/03/07 10:15:12;;;;;;;8.05;5.45;;;;;;;9.28;62.60;97776.47;1222786;75;2925236;-61
2024/03/07 10:17:45;;;;;;;7.20;4.90;;;;;;;9.45;62.30;97782.31;1223569;75;2919439;-64
2024/03/07 10:20:24;;;;;;;6.85;4.40;;;;;;;9.53;60.21;97778.75;1223766;75;2922959;-62
2024/03/07 10:22:58;;;;;;;5.70;3.80;;;;;;;9.54;61.50;97788.47;1186118;75;5499328;-63
2024/03/07 10:25:31;;;;;;;5.50;4.10;;;;;;;9.38;60.76;97778.72;1223446;75;2921810;-62
2024/03/07 10:28:08;;;;;;;8.30;4.70;;;;;;;9.20;60.48;97783.50;1223041;75;2948473;-64
2024/03/07 10:30:45;;;;;;;5.60;3.85;;;;;;;10.07;60.31;97792.50;1222002;75;2923581;-63
2024/03/07 10:33:18;;;;;;;4.45;3.30;;;;;;;10.13;58.95;97784.41;1223053;75;2930440;-64
2024/03/07 10:35:54;;;;;;;3.50;2.55;;;;;;;10.40;58.11;97784.16;1223742;75;2928101;-65
2024/03/07 10:38:27;;;;;;;2.75;2.15;;;;;;;10.65;56.55;97780.13;1223407;75;2924705;-66
2024/03/07 10:41:03;;;;;;;2.95;1.85;;;;;;;10.50;56.87;97784.81;1223469;75;2924041;-63
2024/03/07 10:43:45;;;;;;;4.25;2.85;;;;;;;9.92;56.62;97787.00;1222767;75;2922424;-62
2024/03/07 10:46:19;;;;;;;2.85;2.25;;;;;;;10.23;57.05;97783.84;1222674;75;2898640;-63
2024/03/07 10:48:58;;;;;;;2.85;2.00;;;;;;;9.91;57.65;97785.50;1222946;75;2927024;-63
2024/03/07 10:51:45;;;;;;;4.40;2.45;;;;;;;9.43;58.26;97774.59;1224791;75;2926435;-62
2024/03/07 10:54:34;;;;;;;3.85;2.80;;;;;;;9.14;59.15;97778.69;1223388;75;2928616;-63
2024/03/07 10:57:20;;;;;;;4.25;2.90;;;;;;;9.44;58.53;97778.81;1223195;75;2923590;-62
2024/03/07 10:59:58;;;;;;;4.00;2.50;;;;;;;9.37;58.36;97779.91;1224128;75;2923455;-63
2024/03/07 11:02:41;;;;;;;4.00;2.60;;;;;;;9.39;60.16;97782.19;1224627;75;2918768;-62
2024/03/07 11:05:16;;;;;;;4.20;3.05;;;;;;;9.20;58.99;97783.50;1224353;75;2919027;-63
2024/03/07 11:07:52;;;;;;;4.80;3.45;;;;;;;9.06;60.25;97780.22;1222495;75;2918619;-64
2024/03/07 11:10:25;;;;;;;5.90;3.75;;;;;;;9.32;60.39;97782.53;1222050;75;2923494;-66
2024/03/07 11:13:00;;;;;;;7.40;4.55;;;;;;;9.12;59.54;97772.16;1222969;75;2928538;-62
2024/03/07 11:15:34;;;;;;;6.20;4.10;;;;;;;8.83;59.57;97781.69;1221543;75;3025704;-63
2024/03/07 11:18:08;;;;;;;5.75;4.15;;;;;;;9.17;58.66;97780.47;1223476;75;2930457;-62
2024/03/07 11:20:46;;;;;;;4.85;3.25;;;;;;;9.75;58.93;97772.25;1223605;75;2927719;-62
2024/03/07 11:23:38;;;;;;;4.00;2.80;;;;;;;9.77;57.91;97772.53;1224193;75;2916023;-64
2024/03/07 11:26:13;;;;;;;3.20;2.50;;;;;;;9.86;57.07;97764.25;1224679;75;2923155;-62
2024/03/07 11:28:47;;;;;;;3.95;2.65;;;;;;;9.99;56.96;97766.72;1223833;75;2921835;-66
2024/03/07 11:31:30;;;;;;;5.50;3.45;;;;;;;9.35;58.04;97759.75;1223523;75;2915598;-61
2024/03/07 11:34:19;;;;;;;4.85;3.55;;;;;;;9.54;59.41;97771.31;1223246;75;2922086;-65
2024/03/07 11:36:55;;;;;;;;;;;;;;;9.53;59.08;97767.84;1224991;75;2920293;-62
2024/03/07 11:39:47;;;;;;;5.10;3.50;;;;;;;9.45;59.23;97769.38;1222608;75;2929815;-63
2024/03/07 11:42:30;;;;;;;4.75;3.50;;;;;;;9.38;58.98;97762.31;1223734;75;2924813;-66
2024/03/07 11:45:03;;;;;;;4.75;3.90;;;;;;;9.14;61.65;97770.50;1222023;75;2924163;-64
2024/03/07 11:47:41;;;;;;;9.70;3.80;;;;;;;9.18;65.83;97773.03;1221996;75;2930048;-64
2024/03/07 11:50:14;;;;;;;4.15;2.90;;;;;;;9.51;67.09;97770.28;1223342;75;2923634;-62
2024/03/07 11:52:47;;;;;;;3.90;2.80;;;;;;;8.87;64.55;97763.16;1222656;75;2932292;-63